EWG1UD EDDL-EGLL
Flight info
| Callsign | EWG1UD |
|---|---|
| Flight time | 0h 54m |
| Altitude | 36000 |
| Route | NETEX4Z/05R NETEX Z282 DIBIR L179 SASKI L608 LOGAN |
| Aircraft | A320/M-SDE3FGHIRWY/LB1 |
Departure
| Time | 2026-05-06 08:58 |
|---|---|
| Airport | Düsseldorf Airport (EDDL) |
Arrival
| Time | 2026-05-06 09:53 |
|---|---|
| Airport | London Heathrow Airport (EGLL) |
| Time | Latitude | Longitude | Altitude | Speed | Heading |
|---|---|---|---|---|---|
| 2026-05-06 08:39 | 51.28193 | 6.76554 | 128 ft | 0 kts | 96° |
| 2026-05-06 08:50 | 51.28194 | 6.76545 | 128 ft | 4 kts | 98° |
| 2026-05-06 08:50 | 51.28200 | 6.76504 | 126 ft | 4 kts | 116° |
| 2026-05-06 08:50 | 51.28215 | 6.76471 | 123 ft | 4 kts | 146° |
| 2026-05-06 08:50 | 51.28238 | 6.76458 | 124 ft | 4 kts | 194° |
| 2026-05-06 08:51 | 51.28256 | 6.76478 | 122 ft | 4 kts | 233° |
| 2026-05-06 08:51 | 51.28272 | 6.76513 | 125 ft | 4 kts | 232° |
| 2026-05-06 08:51 | 51.28289 | 6.76547 | 122 ft | 4 kts | 232° |
| 2026-05-06 08:51 | 51.28305 | 6.76580 | 121 ft | 4 kts | 231° |
| 2026-05-06 08:52 | 51.28322 | 6.76614 | 122 ft | 4 kts | 231° |
| 2026-05-06 08:52 | 51.28329 | 6.76628 | 121 ft | 0 kts | 231° |
| 2026-05-06 08:54 | 51.28322 | 6.76614 | 121 ft | 3 kts | 231° |
| 2026-05-06 08:54 | 51.28312 | 6.76593 | 122 ft | 1 kts | 231° |
| 2026-05-06 08:54 | 51.28298 | 6.76557 | 123 ft | 5 kts | 248° |
| 2026-05-06 08:55 | 51.28316 | 6.76476 | 123 ft | 10 kts | 304° |
| 2026-05-06 08:55 | 51.28294 | 6.76366 | 124 ft | 16 kts | 233° |
| 2026-05-06 08:55 | 51.28226 | 6.76223 | 126 ft | 14 kts | 233° |
| 2026-05-06 08:55 | 51.28163 | 6.76090 | 124 ft | 14 kts | 233° |
| 2026-05-06 08:56 | 51.28103 | 6.75963 | 124 ft | 18 kts | 233° |
| 2026-05-06 08:56 | 51.28016 | 6.75781 | 127 ft | 21 kts | 232° |
| 2026-05-06 08:56 | 51.27946 | 6.75618 | 127 ft | 14 kts | 257° |
| 2026-05-06 08:56 | 51.28002 | 6.75520 | 126 ft | 12 kts | 335° |
| 2026-05-06 08:57 | 51.28085 | 6.75477 | 126 ft | 12 kts | 11° |
| 2026-05-06 08:57 | 51.28116 | 6.75525 | 122 ft | 9 kts | 53° |
| 2026-05-06 08:57 | 51.28220 | 6.75744 | 127 ft | 56 kts | 53° |
| 2026-05-06 08:57 | 51.28596 | 6.76533 | 128 ft | 120 kts | 53° |
| 2026-05-06 08:58 | 51.29425 | 6.78258 | 431 ft | 160 kts | 52° |
| 2026-05-06 08:58 | 51.30091 | 6.79698 | 1182 ft | 163 kts | 51° |
| 2026-05-06 08:58 | 51.30791 | 6.81204 | 1716 ft | 179 kts | 51° |
| 2026-05-06 08:58 | 51.31311 | 6.82325 | 1934 ft | 193 kts | 52° |
| 2026-05-06 08:59 | 51.32160 | 6.84130 | 2276 ft | 213 kts | 52° |
| 2026-05-06 08:59 | 51.33117 | 6.86123 | 2691 ft | 238 kts | 52° |
| 2026-05-06 08:59 | 51.34159 | 6.88345 | 3290 ft | 257 kts | 52° |
| 2026-05-06 08:59 | 51.35496 | 6.90267 | 4142 ft | 264 kts | 27° |
| 2026-05-06 09:00 | 51.37268 | 6.91088 | 5073 ft | 268 kts | 10° |
| 2026-05-06 09:00 | 51.39115 | 6.91235 | 6004 ft | 272 kts | 351° |
| 2026-05-06 09:00 | 51.40897 | 6.90172 | 6864 ft | 277 kts | 325° |
| 2026-05-06 09:00 | 51.42223 | 6.87954 | 7726 ft | 279 kts | 298° |
| 2026-05-06 09:01 | 51.42810 | 6.84997 | 8611 ft | 279 kts | 271° |
| 2026-05-06 09:01 | 51.42560 | 6.81927 | 9512 ft | 280 kts | 252° |
| 2026-05-06 09:01 | 51.42024 | 6.78903 | 10207 ft | 290 kts | 252° |
| 2026-05-06 09:01 | 51.41450 | 6.75707 | 10490 ft | 314 kts | 252° |
| 2026-05-06 09:02 | 51.40825 | 6.72218 | 10981 ft | 327 kts | 253° |
| 2026-05-06 09:02 | 51.40202 | 6.68719 | 11645 ft | 335 kts | 253° |
| 2026-05-06 09:02 | 51.39557 | 6.65094 | 12406 ft | 340 kts | 253° |
| 2026-05-06 09:02 | 51.38910 | 6.61429 | 13260 ft | 344 kts | 253° |
| 2026-05-06 09:03 | 51.38256 | 6.57725 | 14094 ft | 346 kts | 253° |
| 2026-05-06 09:03 | 51.37599 | 6.53993 | 14901 ft | 350 kts | 253° |
| 2026-05-06 09:03 | 51.36930 | 6.50221 | 15664 ft | 354 kts | 253° |
| 2026-05-06 09:03 | 51.36248 | 6.46406 | 16420 ft | 358 kts | 253° |
| 2026-05-06 09:04 | 51.35559 | 6.42544 | 17153 ft | 363 kts | 253° |
| 2026-05-06 09:04 | 51.34864 | 6.38644 | 17838 ft | 366 kts | 253° |
| 2026-05-06 09:04 | 51.34159 | 6.34712 | 18430 ft | 370 kts | 253° |
| 2026-05-06 09:04 | 51.33446 | 6.30739 | 18967 ft | 373 kts | 253° |
| 2026-05-06 09:05 | 51.32627 | 6.26839 | 19473 ft | 377 kts | 246° |
| 2026-05-06 09:05 | 51.31407 | 6.23101 | 20015 ft | 379 kts | 240° |
| 2026-05-06 09:05 | 51.30120 | 6.19406 | 20532 ft | 384 kts | 241° |
| 2026-05-06 09:05 | 51.28801 | 6.15642 | 20930 ft | 391 kts | 241° |
| 2026-05-06 09:06 | 51.27466 | 6.11826 | 21404 ft | 395 kts | 241° |
| 2026-05-06 09:06 | 51.26160 | 6.07950 | 21914 ft | 399 kts | 242° |
| 2026-05-06 09:06 | 51.24886 | 6.03988 | 22421 ft | 402 kts | 243° |
| 2026-05-06 09:06 | 51.23653 | 5.99962 | 22924 ft | 406 kts | 246° |
| 2026-05-06 09:07 | 51.22782 | 5.95706 | 23387 ft | 410 kts | 257° |
| 2026-05-06 09:07 | 51.22366 | 5.91197 | 23781 ft | 414 kts | 266° |
| 2026-05-06 09:07 | 51.22274 | 5.86591 | 24186 ft | 417 kts | 268° |
| 2026-05-06 09:07 | 51.22168 | 5.81953 | 24614 ft | 419 kts | 267° |
| 2026-05-06 09:08 | 51.22048 | 5.77293 | 24996 ft | 422 kts | 267° |
| 2026-05-06 09:08 | 51.21921 | 5.72591 | 25357 ft | 426 kts | 266° |
| 2026-05-06 09:08 | 51.21792 | 5.67866 | 25772 ft | 428 kts | 266° |
| 2026-05-06 09:08 | 51.21662 | 5.63125 | 26198 ft | 429 kts | 266° |
| 2026-05-06 09:09 | 51.21534 | 5.58354 | 26585 ft | 432 kts | 266° |
| 2026-05-06 09:09 | 51.21397 | 5.53540 | 26948 ft | 435 kts | 266° |
| 2026-05-06 09:09 | 51.21246 | 5.48712 | 27323 ft | 437 kts | 266° |
| 2026-05-06 09:09 | 51.21085 | 5.43861 | 27732 ft | 439 kts | 266° |
| 2026-05-06 09:10 | 51.20918 | 5.39051 | 28122 ft | 441 kts | 266° |
| 2026-05-06 09:10 | 51.20745 | 5.34157 | 28472 ft | 444 kts | 266° |
| 2026-05-06 09:10 | 51.20567 | 5.29224 | 28820 ft | 446 kts | 266° |
| 2026-05-06 09:10 | 51.20391 | 5.24277 | 29165 ft | 448 kts | 266° |
| 2026-05-06 09:11 | 51.20217 | 5.19311 | 29514 ft | 450 kts | 266° |
| 2026-05-06 09:11 | 51.20042 | 5.14313 | 29838 ft | 452 kts | 266° |
| 2026-05-06 09:11 | 51.19860 | 5.09287 | 30100 ft | 455 kts | 266° |
| 2026-05-06 09:11 | 51.19673 | 5.04243 | 30380 ft | 456 kts | 266° |
| 2026-05-06 09:12 | 51.19485 | 4.99187 | 30672 ft | 457 kts | 266° |
| 2026-05-06 09:12 | 51.19312 | 4.94110 | 30977 ft | 458 kts | 266° |
| 2026-05-06 09:12 | 51.19162 | 4.89051 | 31360 ft | 457 kts | 266° |
| 2026-05-06 09:12 | 51.19023 | 4.84001 | 31782 ft | 455 kts | 267° |
| 2026-05-06 09:13 | 51.18878 | 4.78977 | 32202 ft | 453 kts | 266° |
| 2026-05-06 09:13 | 51.18713 | 4.73980 | 32613 ft | 451 kts | 266° |
| 2026-05-06 09:13 | 51.18529 | 4.68990 | 32991 ft | 450 kts | 266° |
| 2026-05-06 09:13 | 51.18335 | 4.64010 | 33408 ft | 449 kts | 266° |
| 2026-05-06 09:14 | 51.18136 | 4.59060 | 33812 ft | 448 kts | 266° |
| 2026-05-06 09:14 | 51.17938 | 4.54109 | 34155 ft | 447 kts | 266° |
| 2026-05-06 09:14 | 51.17740 | 4.49168 | 34478 ft | 446 kts | 266° |
| 2026-05-06 09:14 | 51.17547 | 4.44305 | 34785 ft | 445 kts | 265° |
| 2026-05-06 09:15 | 51.17355 | 4.39380 | 35075 ft | 444 kts | 265° |
| 2026-05-06 09:15 | 51.17161 | 4.34466 | 35368 ft | 444 kts | 265° |
| 2026-05-06 09:15 | 51.16964 | 4.29574 | 35671 ft | 443 kts | 265° |
| 2026-05-06 09:15 | 51.16767 | 4.24676 | 35848 ft | 443 kts | 266° |
| 2026-05-06 09:16 | 51.16819 | 4.19772 | 35890 ft | 444 kts | 275° |
| 2026-05-06 09:16 | 51.18330 | 4.10265 | 35884 ft | 445 kts | 288° |
| 2026-05-06 09:17 | 51.20431 | 4.00987 | 35879 ft | 445 kts | 288° |
| 2026-05-06 09:17 | 51.22529 | 3.91698 | 35879 ft | 445 kts | 289° |
| 2026-05-06 09:18 | 51.24702 | 3.82431 | 35874 ft | 445 kts | 289° |
| 2026-05-06 09:18 | 51.26884 | 3.73230 | 35883 ft | 446 kts | 289° |
| 2026-05-06 09:19 | 51.29054 | 3.63957 | 35889 ft | 445 kts | 289° |
| 2026-05-06 09:19 | 51.31200 | 3.54672 | 35892 ft | 445 kts | 288° |
| 2026-05-06 09:20 | 51.33336 | 3.45380 | 35895 ft | 445 kts | 289° |
| 2026-05-06 09:20 | 51.35473 | 3.36084 | 35899 ft | 445 kts | 289° |
| 2026-05-06 09:21 | 51.37599 | 3.26836 | 35906 ft | 445 kts | 288° |
| 2026-05-06 09:21 | 51.39720 | 3.17532 | 35917 ft | 445 kts | 288° |
| 2026-05-06 09:22 | 51.41827 | 3.08228 | 35916 ft | 444 kts | 288° |
| 2026-05-06 09:22 | 51.43933 | 2.98883 | 35917 ft | 444 kts | 288° |
| 2026-05-06 09:23 | 51.46027 | 2.89564 | 35919 ft | 444 kts | 288° |
| 2026-05-06 09:23 | 51.47744 | 2.81889 | 35937 ft | 444 kts | 288° |
| 2026-05-06 09:24 | 51.49619 | 2.73499 | 35940 ft | 442 kts | 288° |
| 2026-05-06 09:24 | 51.51682 | 2.64210 | 35947 ft | 441 kts | 288° |
| 2026-05-06 09:25 | 51.53726 | 2.54919 | 35942 ft | 442 kts | 288° |
| 2026-05-06 09:25 | 51.55782 | 2.45608 | 35948 ft | 441 kts | 289° |
| 2026-05-06 09:26 | 51.57886 | 2.36389 | 35948 ft | 441 kts | 289° |
| 2026-05-06 09:26 | 51.60025 | 2.27134 | 35448 ft | 443 kts | 289° |
| 2026-05-06 09:26 | 51.61092 | 2.22482 | 34767 ft | 442 kts | 289° |
| 2026-05-06 09:27 | 51.62147 | 2.17842 | 34099 ft | 442 kts | 289° |
| 2026-05-06 09:27 | 51.63199 | 2.13186 | 33337 ft | 442 kts | 289° |
| 2026-05-06 09:27 | 51.64231 | 2.08586 | 32583 ft | 442 kts | 288° |
| 2026-05-06 09:27 | 51.65287 | 2.03867 | 31836 ft | 442 kts | 289° |
| 2026-05-06 09:28 | 51.66313 | 1.99272 | 31112 ft | 440 kts | 288° |
| 2026-05-06 09:28 | 51.67346 | 1.94649 | 30415 ft | 439 kts | 288° |
| 2026-05-06 09:28 | 51.68377 | 1.90028 | 29723 ft | 435 kts | 288° |
| 2026-05-06 09:28 | 51.69394 | 1.85460 | 29005 ft | 431 kts | 288° |
| 2026-05-06 09:29 | 51.70403 | 1.80926 | 28305 ft | 427 kts | 288° |
| 2026-05-06 09:29 | 51.71401 | 1.76430 | 27623 ft | 424 kts | 288° |
| 2026-05-06 09:29 | 51.72385 | 1.71975 | 26964 ft | 420 kts | 288° |
| 2026-05-06 09:29 | 51.73363 | 1.67545 | 26323 ft | 417 kts | 288° |
| 2026-05-06 09:30 | 51.74180 | 1.63097 | 25687 ft | 411 kts | 279° |
| 2026-05-06 09:30 | 51.74491 | 1.58541 | 25073 ft | 406 kts | 269° |
| 2026-05-06 09:30 | 51.74320 | 1.54034 | 24457 ft | 401 kts | 262° |
| 2026-05-06 09:30 | 51.74028 | 1.49574 | 23856 ft | 398 kts | 263° |
| 2026-05-06 09:31 | 51.73737 | 1.45159 | 23230 ft | 395 kts | 263° |
| 2026-05-06 09:31 | 51.73455 | 1.40816 | 22548 ft | 392 kts | 263° |
| 2026-05-06 09:31 | 51.73171 | 1.36457 | 21874 ft | 390 kts | 263° |
| 2026-05-06 09:31 | 51.72887 | 1.32106 | 21208 ft | 388 kts | 263° |
| 2026-05-06 09:32 | 51.72605 | 1.27797 | 20561 ft | 386 kts | 263° |
| 2026-05-06 09:32 | 51.72322 | 1.23505 | 19933 ft | 384 kts | 263° |
| 2026-05-06 09:32 | 51.72037 | 1.19218 | 19314 ft | 382 kts | 264° |
| 2026-05-06 09:32 | 51.71751 | 1.14961 | 18708 ft | 380 kts | 264° |
| 2026-05-06 09:33 | 51.71464 | 1.10734 | 18091 ft | 379 kts | 264° |
| 2026-05-06 09:33 | 51.71176 | 1.06524 | 17534 ft | 374 kts | 264° |
| 2026-05-06 09:33 | 51.70892 | 1.02391 | 17017 ft | 370 kts | 264° |
| 2026-05-06 09:33 | 51.70614 | 0.98348 | 16469 ft | 367 kts | 264° |
| 2026-05-06 09:34 | 51.70332 | 0.94235 | 16073 ft | 360 kts | 264° |
| 2026-05-06 09:34 | 51.70063 | 0.90347 | 15949 ft | 347 kts | 264° |
| 2026-05-06 09:34 | 51.69793 | 0.86475 | 15971 ft | 342 kts | 264° |
| 2026-05-06 09:34 | 51.69531 | 0.82705 | 15974 ft | 342 kts | 264° |
| 2026-05-06 09:35 | 51.69266 | 0.78913 | 15973 ft | 340 kts | 264° |
| 2026-05-06 09:35 | 51.68997 | 0.75109 | 15400 ft | 343 kts | 264° |
| 2026-05-06 09:35 | 51.68724 | 0.71281 | 14672 ft | 341 kts | 264° |
| 2026-05-06 09:35 | 51.68453 | 0.67503 | 14062 ft | 335 kts | 264° |
| 2026-05-06 09:36 | 51.68189 | 0.63806 | 13424 ft | 332 kts | 264° |
| 2026-05-06 09:36 | 51.67925 | 0.60130 | 12743 ft | 327 kts | 264° |
| 2026-05-06 09:36 | 51.67667 | 0.56542 | 12101 ft | 318 kts | 265° |
| 2026-05-06 09:36 | 51.67416 | 0.53055 | 11468 ft | 310 kts | 265° |
| 2026-05-06 09:37 | 51.67174 | 0.49685 | 10846 ft | 303 kts | 265° |
| 2026-05-06 09:37 | 51.66930 | 0.46337 | 10253 ft | 296 kts | 265° |
| 2026-05-06 09:37 | 51.66691 | 0.43115 | 9838 ft | 286 kts | 266° |
| 2026-05-06 09:37 | 51.66446 | 0.39949 | 9392 ft | 282 kts | 266° |
| 2026-05-06 09:38 | 51.66192 | 0.36820 | 9073 ft | 282 kts | 265° |
| 2026-05-06 09:38 | 51.65935 | 0.33686 | 8774 ft | 282 kts | 265° |
| 2026-05-06 09:38 | 51.65667 | 0.30584 | 8458 ft | 279 kts | 265° |
| 2026-05-06 09:38 | 51.65395 | 0.27498 | 8147 ft | 277 kts | 265° |
| 2026-05-06 09:39 | 51.65130 | 0.24431 | 7987 ft | 276 kts | 265° |
| 2026-05-06 09:39 | 51.64863 | 0.21378 | 7994 ft | 276 kts | 265° |
| 2026-05-06 09:39 | 51.64602 | 0.18344 | 7997 ft | 276 kts | 265° |
| 2026-05-06 09:39 | 51.64328 | 0.15238 | 8000 ft | 276 kts | 265° |
| 2026-05-06 09:40 | 51.64062 | 0.12220 | 7999 ft | 277 kts | 265° |
| 2026-05-06 09:40 | 51.63784 | 0.09145 | 8001 ft | 276 kts | 265° |
| 2026-05-06 09:40 | 51.63234 | 0.02999 | 7999 ft | 277 kts | 265° |
| 2026-05-06 09:41 | 51.62959 | -0.00068 | 8002 ft | 277 kts | 265° |
| 2026-05-06 09:41 | 51.62700 | -0.03028 | 8013 ft | 276 kts | 265° |
| 2026-05-06 09:41 | 51.62427 | -0.06185 | 8018 ft | 275 kts | 265° |
| 2026-05-06 09:41 | 51.62167 | -0.09196 | 8022 ft | 274 kts | 265° |
| 2026-05-06 09:42 | 51.61897 | -0.12278 | 8026 ft | 275 kts | 265° |
| 2026-05-06 09:42 | 51.61632 | -0.15317 | 8026 ft | 274 kts | 265° |
| 2026-05-06 09:42 | 51.61373 | -0.18319 | 8026 ft | 274 kts | 265° |
| 2026-05-06 09:42 | 51.61111 | -0.21367 | 8028 ft | 274 kts | 265° |
| 2026-05-06 09:43 | 51.60851 | -0.24403 | 8027 ft | 274 kts | 265° |
| 2026-05-06 09:43 | 51.60591 | -0.27447 | 8028 ft | 275 kts | 265° |
| 2026-05-06 09:43 | 51.60327 | -0.30497 | 8002 ft | 274 kts | 265° |
| 2026-05-06 09:43 | 51.60067 | -0.33532 | 8002 ft | 274 kts | 265° |
| 2026-05-06 09:44 | 51.59802 | -0.36568 | 8000 ft | 274 kts | 265° |
| 2026-05-06 09:44 | 51.59535 | -0.39609 | 8002 ft | 275 kts | 265° |
| 2026-05-06 09:44 | 51.59270 | -0.42651 | 8002 ft | 274 kts | 265° |
| 2026-05-06 09:44 | 51.59005 | -0.45690 | 8002 ft | 274 kts | 265° |
| 2026-05-06 09:45 | 51.58742 | -0.48733 | 7865 ft | 275 kts | 265° |
| 2026-05-06 09:45 | 51.58475 | -0.51776 | 7463 ft | 274 kts | 265° |
| 2026-05-06 09:45 | 51.58208 | -0.54765 | 7064 ft | 273 kts | 265° |
| 2026-05-06 09:45 | 51.57929 | -0.57769 | 6662 ft | 271 kts | 265° |
| 2026-05-06 09:46 | 51.57641 | -0.60753 | 6287 ft | 269 kts | 265° |
| 2026-05-06 09:46 | 51.57346 | -0.63706 | 5889 ft | 266 kts | 265° |
| 2026-05-06 09:46 | 51.57048 | -0.66640 | 5505 ft | 264 kts | 265° |
| 2026-05-06 09:46 | 51.56757 | -0.69485 | 5176 ft | 260 kts | 265° |
| 2026-05-06 09:47 | 51.56444 | -0.72329 | 4839 ft | 259 kts | 261° |
| 2026-05-06 09:47 | 51.55613 | -0.74895 | 4532 ft | 263 kts | 230° |
| 2026-05-06 09:47 | 51.54107 | -0.76494 | 4263 ft | 260 kts | 200° |
| 2026-05-06 09:47 | 51.52383 | -0.77191 | 4004 ft | 251 kts | 192° |
| 2026-05-06 09:48 | 51.50705 | -0.77722 | 3737 ft | 241 kts | 189° |
| 2026-05-06 09:48 | 51.49073 | -0.77620 | 3545 ft | 232 kts | 158° |
| 2026-05-06 09:48 | 51.47816 | -0.76207 | 3413 ft | 219 kts | 118° |
| 2026-05-06 09:48 | 51.47462 | -0.74033 | 3244 ft | 195 kts | 79° |
| 2026-05-06 09:49 | 51.47626 | -0.71893 | 3013 ft | 195 kts | 83° |
| 2026-05-06 09:49 | 51.47649 | -0.69709 | 2755 ft | 197 kts | 85° |
| 2026-05-06 09:49 | 51.47659 | -0.67491 | 2480 ft | 200 kts | 86° |
| 2026-05-06 09:49 | 51.47670 | -0.65260 | 2223 ft | 198 kts | 85° |
| 2026-05-06 09:50 | 51.47679 | -0.63125 | 1941 ft | 184 kts | 85° |
| 2026-05-06 09:50 | 51.47689 | -0.61143 | 1688 ft | 172 kts | 85° |
| 2026-05-06 09:50 | 51.47698 | -0.59283 | 1459 ft | 162 kts | 85° |
| 2026-05-06 09:50 | 51.47704 | -0.58116 | 1324 ft | 154 kts | 85° |
| 2026-05-06 09:51 | 51.47711 | -0.56448 | 1116 ft | 143 kts | 84° |
| 2026-05-06 09:51 | 51.47718 | -0.54902 | 917 ft | 136 kts | 84° |
| 2026-05-06 09:51 | 51.47726 | -0.53395 | 729 ft | 135 kts | 83° |
| 2026-05-06 09:51 | 51.47736 | -0.51882 | 547 ft | 135 kts | 84° |
| 2026-05-06 09:52 | 51.47744 | -0.50377 | 377 ft | 135 kts | 84° |
| 2026-05-06 09:52 | 51.47751 | -0.48852 | 161 ft | 136 kts | 85° |
| 2026-05-06 09:52 | 51.47756 | -0.47400 | 87 ft | 116 kts | 90° |
| 2026-05-06 09:52 | 51.47758 | -0.46392 | 90 ft | 67 kts | 90° |
| 2026-05-06 09:53 | 51.47760 | -0.45755 | 84 ft | 40 kts | 89° |
| 2026-05-06 09:53 | 51.47743 | -0.45501 | 87 ft | 17 kts | 131° |
| 2026-05-06 09:53 | 51.47661 | -0.45467 | 86 ft | 10 kts | 179° |
| 2026-05-06 09:53 | 51.47611 | -0.45465 | 86 ft | 5 kts | 174° |
| 2026-05-06 09:54 | 51.47597 | -0.45426 | 86 ft | 5 kts | 97° |
| 2026-05-06 09:54 | 51.47596 | -0.45374 | 86 ft | 4 kts | 90° |
| 2026-05-06 09:54 | 51.47596 | -0.45308 | 86 ft | 7 kts | 90° |
| 2026-05-06 09:54 | 51.47596 | -0.45238 | 86 ft | 6 kts | 90° |
| 2026-05-06 09:55 | 51.47597 | -0.45179 | 86 ft | 5 kts | 89° |
| 2026-05-06 09:55 | 51.47598 | -0.45056 | 86 ft | 16 kts | 89° |
| 2026-05-06 09:55 | 51.47599 | -0.44868 | 86 ft | 18 kts | 90° |
| 2026-05-06 09:55 | 51.47592 | -0.44690 | 89 ft | 12 kts | 118° |
| 2026-05-06 09:56 | 51.47521 | -0.44643 | 86 ft | 11 kts | 147° |
| 2026-05-06 09:56 | 51.47469 | -0.44579 | 87 ft | 9 kts | 166° |
| 2026-05-06 09:56 | 51.47408 | -0.44562 | 86 ft | 11 kts | 174° |
| 2026-05-06 09:56 | 51.47298 | -0.44558 | 86 ft | 16 kts | 179° |
| 2026-05-06 09:57 | 51.47190 | -0.44558 | 86 ft | 15 kts | 180° |
| 2026-05-06 09:57 | 51.47084 | -0.44557 | 86 ft | 15 kts | 180° |
| 2026-05-06 09:57 | 51.46984 | -0.44557 | 86 ft | 14 kts | 180° |
| 2026-05-06 09:57 | 51.46892 | -0.44556 | 86 ft | 13 kts | 179° |
| 2026-05-06 09:58 | 51.46826 | -0.44576 | 89 ft | 7 kts | 232° |
| 2026-05-06 09:58 | 51.46820 | -0.44648 | 88 ft | 5 kts | 267° |
| 2026-05-06 09:58 | 51.46820 | -0.44676 | 90 ft | 1 kts | 267° |
| 2026-05-06 09:58 | 51.46819 | -0.44679 | 90 ft | 0 kts | 267° |
| 2026-05-06 09:59 | 51.46819 | -0.44680 | 90 ft | 0 kts | 267° |